createdAt,value
2023-01-07T00:00:27.954Z,96975.47
2023-01-07T00:05:30.018Z,96959.22
2023-01-07T00:10:32.454Z,96974.72
2023-01-07T00:15:34.710Z,96972.00
2023-01-07T00:20:36.921Z,96960.94
2023-01-07T00:25:39.152Z,96927.63
2023-01-07T00:30:45.331Z,96970.34
2023-01-07T00:35:49.845Z,96943.75
2023-01-07T00:40:52.064Z,96974.78
2023-01-07T00:45:54.381Z,96969.72
2023-01-07T00:50:56.826Z,96965.38
2023-01-07T00:55:58.990Z,96977.31
2023-01-07T01:01:02.258Z,96973.13
2023-01-07T01:06:13.356Z,96975.78
2023-01-07T01:11:16.741Z,96998.22
2023-01-07T01:16:19.076Z,96982.69
2023-01-07T01:21:21.166Z,96981.06
2023-01-07T01:26:23.399Z,97005.88
2023-01-07T01:31:25.979Z,96980.09
2023-01-07T01:36:29.006Z,96998.22
2023-01-07T01:41:34.511Z,97021.34
2023-01-07T01:46:41.677Z,97014.50
2023-01-07T01:51:56.160Z,96988.97
2023-01-07T01:57:03.097Z,97003.34
2023-01-07T02:02:07.200Z,97000.00
2023-01-07T02:07:15.135Z,97002.63
2023-01-07T02:12:36.779Z,96989.75
2023-01-07T02:17:45.339Z,96966.63
2023-01-07T02:23:06.980Z,96982.88
2023-01-07T02:28:27.692Z,96938.34
2023-01-07T02:33:38.962Z,96987.19
2023-01-07T02:39:04.883Z,96981.19
2023-01-07T02:44:21.247Z,96963.88
2023-01-07T02:49:23.980Z,96958.00
2023-01-07T02:54:29.658Z,96950.31
2023-01-07T02:59:51.733Z,96963.13
2023-01-07T03:05:17.993Z,96963.94
2023-01-07T03:10:30.983Z,96957.16
2023-01-07T03:15:49.250Z,96966.56
2023-01-07T03:20:57.075Z,96940.09
2023-01-07T03:26:05.433Z,96982.03
2023-01-07T03:31:12.464Z,96975.25
2023-01-07T03:36:18.567Z,96957.38
2023-01-07T03:41:40.066Z,96983.84
2023-01-07T03:46:43.504Z,96962.53
2023-01-07T03:51:46.885Z,96964.19
2023-01-07T03:56:49.626Z,96968.44
2023-01-07T04:01:52.009Z,96976.22
2023-01-07T04:06:54.841Z,96993.38
2023-01-07T04:11:57.588Z,96983.09
2023-01-07T04:17:00.662Z,96977.06
2023-01-07T04:22:03.084Z,96964.25
2023-01-07T04:27:07.277Z,96978.00
2023-01-07T04:32:09.465Z,96984.81
2023-01-07T04:37:11.766Z,96994.22
2023-01-07T04:42:14.103Z,96989.97
2023-01-07T04:47:16.911Z,96982.19
2023-01-07T04:52:19.993Z,97019.91
2023-01-07T04:57:22.302Z,96978.84
2023-01-07T05:02:25.385Z,97007.13
2023-01-07T05:07:28.802Z,97021.69
2023-01-07T05:12:36.441Z,97001.16
2023-01-07T05:17:41.039Z,96996.03
2023-01-07T05:22:43.696Z,97008.88
2023-01-07T05:27:46.074Z,97004.59
2023-01-07T05:32:48.714Z,97025.16
2023-01-07T05:37:51.810Z,96994.34
2023-01-07T05:42:55.142Z,97017.47
2023-01-07T05:47:57.383Z,96980.63
2023-01-07T05:52:59.514Z,97020.91
2023-01-07T05:58:01.773Z,97000.31
2023-01-07T06:03:05.284Z,96990.88
2023-01-07T06:08:10.311Z,97030.28
2023-01-07T06:13:12.357Z,96997.78
2023-01-07T06:18:14.501Z,97027.72
2023-01-07T06:23:16.841Z,97042.34
2023-01-07T06:28:19.326Z,97030.31
2023-01-07T06:33:21.647Z,96998.63
2023-01-07T06:38:23.746Z,97014.03
2023-01-07T06:43:26.405Z,97016.56
2023-01-07T06:48:28.732Z,97034.56
2023-01-07T06:53:31.146Z,97031.13
2023-01-07T06:58:33.237Z,97028.47
2023-01-07T07:03:35.554Z,96998.38
2023-01-07T07:08:37.799Z,97006.16
2023-01-07T07:13:40.016Z,97010.25
2023-01-07T07:18:42.200Z,97003.25
2023-01-07T07:23:49.249Z,97026.16
2023-01-07T07:28:51.401Z,96989.31
2023-01-07T07:33:53.598Z,97006.63
2023-01-07T07:38:56.029Z,96989.47
2023-01-07T07:43:58.703Z,96951.88
2023-01-07T07:49:01.880Z,96939.47
2023-01-07T07:59:25.996Z,96921.88
2023-01-07T08:04:34.324Z,96935.59
2023-01-07T08:09:36.630Z,96912.47
2023-01-07T08:14:38.994Z,96912.84
2023-01-07T08:19:41.056Z,96929.94
2023-01-07T08:24:43.129Z,96939.31
2023-01-07T08:29:45.337Z,96943.28
2023-01-07T08:34:47.782Z,96922.69
2023-01-07T08:39:50.285Z,96929.91
2023-01-07T08:44:52.513Z,96896.13
2023-01-07T08:49:55.289Z,96927.34
2023-01-07T08:54:57.805Z,96903.41
2023-01-07T09:00:00.149Z,96909.03
2023-01-07T09:05:02.292Z,96924.38
2023-01-07T09:10:05.268Z,96923.78
2023-01-07T09:15:08.158Z,96899.91
2023-01-07T09:20:13.630Z,96891.31
2023-01-07T09:25:16.232Z,96875.25
2023-01-07T09:30:23.517Z,96862.97
2023-01-07T09:35:25.789Z,96874.34
2023-01-07T09:40:30.983Z,96872.59
2023-01-07T09:45:57.459Z,96852.13
2023-01-07T09:51:19.436Z,96831.59
2023-01-07T09:56:36.654Z,96844.44
2023-01-07T10:02:03.771Z,96835.03
2023-01-07T10:07:09.213Z,96825.88
2023-01-07T10:12:14.906Z,96820.69
2023-01-07T10:17:37.304Z,96820.31
2023-01-07T10:22:54.113Z,96799.13
2023-01-07T10:28:03.431Z,96785.50
2023-01-07T10:33:19.769Z,96794.13
2023-01-07T10:38:22.113Z,96784.50
2023-01-07T10:43:29.940Z,96791.09
2023-01-07T10:48:35.067Z,96776.78
2023-01-07T10:53:53.355Z,96777.25
2023-01-07T10:58:55.823Z,96768.50
2023-01-07T11:04:00.110Z,96772.16
2023-01-07T11:09:07.443Z,96762.25
2023-01-07T11:14:39.751Z,96778.91
2023-01-07T11:19:49.356Z,96761.81
2023-01-07T11:24:51.729Z,96762.22
2023-01-07T11:30:41.593Z,96743.19
2023-01-07T11:42:38.596Z,96758.25
2023-01-07T11:47:48.807Z,96749.06
2023-01-07T11:53:02.483Z,96718.78
2023-01-07T11:58:29.415Z,96721.63
2023-01-07T12:03:29.463Z,96744.19
2023-01-07T12:08:32.121Z,96725.91
2023-01-07T12:13:34.658Z,96719.91
2023-01-07T12:18:55.846Z,96737.59
2023-01-07T12:24:00.900Z,96746.06
2023-01-07T12:29:16.538Z,96744.81
2023-01-07T12:34:32.538Z,96723.66
2023-01-07T12:39:42.841Z,96741.88
2023-01-07T12:44:55.068Z,96746.03
2023-01-07T12:50:09.863Z,96748.81
2023-01-07T12:55:25.871Z,96722.31
2023-01-07T13:00:52.962Z,96714.88
2023-01-07T13:06:11.441Z,96727.09
2023-01-07T13:11:43.828Z,96727.69
2023-01-07T13:16:46.250Z,96722.75
2023-01-07T13:21:50.167Z,96726.38
2023-01-07T13:27:09.764Z,96724.34
2023-01-07T13:32:30.398Z,96737.22
2023-01-07T13:37:44.837Z,96740.63
2023-01-07T13:42:59.789Z,96741.47
2023-01-07T13:48:07.336Z,96741.31
2023-01-07T13:53:15.695Z,96738.84
2023-01-07T13:58:56.077Z,96747.22
2023-01-07T14:04:03.566Z,96737.75
2023-01-07T14:09:08.552Z,96757.47
2023-01-07T14:14:47.933Z,96754.31
2023-01-07T14:20:02.328Z,96764.00
2023-01-07T14:25:42.827Z,96749.78
2023-01-07T14:30:53.556Z,96742.06
2023-01-07T14:36:00.240Z,96766.34
2023-01-07T14:41:13.512Z,96764.66
2023-01-07T14:46:25.076Z,96765.66
2023-01-07T14:52:00.508Z,96771.16
2023-01-07T14:57:23.903Z,96772.06
2023-01-07T15:03:03.999Z,96783.22
2023-01-07T15:08:29.334Z,96791.78
2023-01-07T15:13:55.403Z,96789.91
2023-01-07T15:18:57.718Z,96788.66
2023-01-07T15:24:33.467Z,96813.75
2023-01-07T15:29:56.835Z,96811.91
2023-01-07T15:34:59.212Z,96775.78
2023-01-07T15:40:01.841Z,96824.47
2023-01-07T15:45:04.963Z,96814.13
2023-01-07T15:50:23.831Z,96827.22
2023-01-07T15:55:33.121Z,96785.06
2023-01-07T16:00:36.016Z,96816.28
2023-01-07T16:05:38.685Z,96829.25
2023-01-07T16:10:40.878Z,96815.59
2023-01-07T16:15:43.012Z,96778.28
2023-01-07T16:21:01.360Z,96838.13
2023-01-07T16:26:25.199Z,96842.34
2023-01-07T16:31:29.983Z,96832.09
2023-01-07T16:36:38.474Z,96838.28
2023-01-07T16:41:42.981Z,96839.69
2023-01-07T16:47:06.697Z,96852.25
2023-01-07T16:52:17.061Z,96852.38
2023-01-07T16:57:48.909Z,96857.69
2023-01-07T17:02:59.870Z,96834.53
2023-01-07T17:08:08.510Z,96848.47
2023-01-07T17:13:14.989Z,96862.56
2023-01-07T17:18:17.630Z,96856.50
2023-01-07T17:23:25.629Z,96865.31
2023-01-07T17:28:30.668Z,96845.50
2023-01-07T17:33:33.035Z,96846.03
2023-01-07T17:38:35.274Z,96854.97
2023-01-07T17:43:38.026Z,96858.44
2023-01-07T17:48:40.139Z,96859.31
2023-01-07T17:53:50.546Z,96872.22
2023-01-07T17:58:55.747Z,96854.41
2023-01-07T18:04:01.484Z,96858.81
2023-01-07T18:09:05.159Z,96869.19
2023-01-07T18:14:08.076Z,96866.09
2023-01-07T18:19:14.793Z,96861.94
2023-01-07T18:24:20.281Z,96878.47
2023-01-07T18:29:22.526Z,96870.50
2023-01-07T18:34:24.993Z,96853.38
2023-01-07T18:39:27.207Z,96861.28
2023-01-07T18:44:29.475Z,96891.28
2023-01-07T18:49:31.717Z,96866.56
2023-01-07T18:54:33.985Z,96864.16
2023-01-07T18:59:36.503Z,96884.66
2023-01-07T19:04:41.793Z,96840.53
2023-01-07T19:09:44.832Z,96829.34
2023-01-07T19:14:46.921Z,96874.78
2023-01-07T19:19:49.244Z,96869.72
2023-01-07T19:24:51.839Z,96840.56
2023-01-07T19:29:54.137Z,96828.66
2023-01-07T19:34:56.379Z,96857.56
2023-01-07T19:39:58.453Z,96878.91
2023-01-07T19:45:00.690Z,96858.47
2023-01-07T19:50:23.220Z,96879.91
2023-01-07T19:55:27.417Z,96853.31
2023-01-07T20:00:29.515Z,96847.38
2023-01-07T20:05:31.594Z,96882.59
2023-01-07T20:10:34.099Z,96864.66
2023-01-07T20:15:36.460Z,96856.38
2023-01-07T20:20:38.603Z,96874.50
2023-01-07T20:25:48.120Z,96855.72
2023-01-07T20:30:50.378Z,96858.13
2023-01-07T20:36:03.494Z,96873.53
2023-01-07T20:41:14.357Z,96847.00
2023-01-07T20:46:17.886Z,96813.66
2023-01-07T20:51:20.724Z,96853.81
2023-01-07T20:56:36.597Z,96877.84
2023-01-07T21:01:39.260Z,96859.13
2023-01-07T21:06:45.038Z,96876.28
2023-01-07T21:11:50.106Z,96879.66
2023-01-07T21:16:52.519Z,96842.94
2023-01-07T21:21:54.973Z,96879.59
2023-01-07T21:26:57.222Z,96850.66
2023-01-07T21:32:01.115Z,96848.13
2023-01-07T21:37:03.718Z,96832.69
2023-01-07T21:42:06.650Z,96856.53
2023-01-07T21:47:08.863Z,96857.41
2023-01-07T21:52:11.123Z,96815.44
2023-01-07T21:57:13.421Z,96841.94
2023-01-07T22:02:17.995Z,96854.13
2023-01-07T22:07:20.331Z,96835.34
2023-01-07T22:12:23.682Z,96802.84
2023-01-07T22:17:26.904Z,96832.75
2023-01-07T22:22:36.633Z,96823.31
2023-01-07T22:27:38.848Z,96808.75
2023-01-07T22:32:41.151Z,96808.59
2023-01-07T22:37:43.302Z,96797.44
2023-01-07T22:42:55.839Z,96802.69
2023-01-07T22:47:58.393Z,96784.81
2023-01-07T22:53:00.543Z,96794.97
2023-01-07T22:58:03.569Z,96794.19
2023-01-07T23:03:06.001Z,96765.25
2023-01-07T23:08:08.684Z,96749.88
2023-01-07T23:13:11.190Z,96774.59
2023-01-07T23:18:14.005Z,96789.13
2023-01-07T23:23:16.362Z,96777.22
2023-01-07T23:28:19.789Z,96775.53
2023-01-07T23:33:22.045Z,96780.63
2023-01-07T23:38:24.202Z,96766.88
2023-01-07T23:43:27.411Z,96742.16
2023-01-07T23:48:31.710Z,96758.44
2023-01-07T23:53:34.426Z,96774.66
2023-01-07T23:58:38.079Z,96737.94
